Time;durP1;ratioP1;P1;durP2;ratioP2;P2;SDS_P1;SDS_P2;PMS_P1;PMS_P2;Temp;Humidity;BMP_temperature;BMP_pressure;BME280_temperature;BME280_humidity;BME280_pressure;Samples;Min_cycle;Max_cycle;Signal;HPM_P1;HPM_P2
2021/08/02 00:02:11;;;;;;;7.38;4.18;;;;;;;17.41;66.21;100373.50;4915697;29;20036;-92
2021/08/02 00:04:45;;;;;;;8.68;4.07;;;;;;;17.55;66.27;100366.84;4915651;29;20123;-92
2021/08/02 00:07:14;;;;;;;6.68;4.38;;;;;;;17.44;66.40;100363.41;4934091;29;20569;-90
2021/08/02 00:09:42;;;;;;;8.70;4.50;;;;;;;17.44;66.81;100367.91;4936747;29;20020;-91
2021/08/02 00:12:16;;;;;;;6.97;4.25;;;;;;;17.62;65.94;100367.91;4936888;29;20047;-92
2021/08/02 00:14:44;;;;;;;8.27;4.55;;;;;;;17.47;66.55;100361.44;4936694;29;20032;-90
2021/08/02 00:17:10;;;;;;;6.90;4.97;;;;;;;17.38;67.19;100369.31;4936638;29;20058;-90
2021/08/02 00:19:35;;;;;;;8.35;4.25;;;;;;;17.32;66.98;100367.28;4935329;29;20086;-91
2021/08/02 00:22:02;;;;;;;6.18;4.00;;;;;;;17.28;67.19;100368.56;4936816;29;20036;-92
2021/08/02 00:24:28;;;;;;;9.48;4.72;;;;;;;17.32;66.96;100361.97;4936683;29;20035;-91
2021/08/02 00:26:56;;;;;;;5.18;4.68;;;;;;;17.29;67.47;100358.78;4936513;29;20024;-91
2021/08/02 00:29:22;;;;;;;9.73;5.15;;;;;;;17.23;68.37;100358.38;4936615;29;20086;-91
2021/08/02 00:31:48;;;;;;;7.10;5.75;;;;;;;17.21;69.65;100362.16;4936342;29;20024;-92
2021/08/02 00:34:14;;;;;;;6.78;5.22;;;;;;;17.29;69.80;100362.25;4936381;29;20537;-92
2021/08/02 00:36:52;;;;;;;8.35;5.10;;;;;;;17.54;68.93;100347.44;4936425;29;20031;-92
2021/08/02 00:39:42;;;;;;;6.90;5.15;;;;;;;17.53;67.85;100355.53;4935622;29;20106;-91
2021/08/02 00:42:23;;;;;;;6.72;4.97;;;;;;;17.49;67.71;100354.16;4936273;29;20035;-91
2021/08/02 00:45:08;;;;;;;8.27;5.10;;;;;;;17.51;67.51;100358.34;4936102;29;20452;-91
2021/08/02 00:47:38;;;;;;;5.15;4.32;;;;;;;17.36;68.07;100355.38;4935219;29;20402;-91
2021/08/02 00:50:05;;;;;;;5.60;5.05;;;;;;;17.36;68.08;100355.38;4936302;29;20412;-91
2021/08/02 00:52:33;;;;;;;5.35;4.10;;;;;;;17.29;68.37;100364.91;4936062;29;20058;-92
2021/08/02 00:55:03;;;;;;;6.50;4.85;;;;;;;17.22;68.09;100358.53;4935885;29;20020;-92
2021/08/02 00:57:34;;;;;;;8.45;4.32;;;;;;;17.23;68.65;100360.19;4935999;29;20037;-92
2021/08/02 01:00:04;;;;;;;7.18;6.03;;;;;;;17.22;69.88;100358.53;4936004;29;20067;-91
2021/08/02 01:02:36;;;;;;;6.43;5.70;;;;;;;17.32;69.07;100361.97;4935917;29;20035;-93
2021/08/02 01:05:03;;;;;;;8.70;6.07;;;;;;;17.10;70.69;100354.41;4935865;29;20050;-91
2021/08/02 01:07:31;;;;;;;8.60;6.38;;;;;;;17.27;70.60;100347.47;4935970;29;20434;-91
2021/08/02 01:09:57;;;;;;;10.32;5.82;;;;;;;17.23;69.98;100354.88;4935753;29;20035;-92
2021/08/02 01:12:24;;;;;;;5.50;4.95;;;;;;;17.29;69.53;100343.66;4935786;29;20453;-92
2021/08/02 01:14:50;;;;;;;9.13;6.13;;;;;;;17.22;69.68;100347.94;4935721;29;20379;-92
2021/08/02 01:17:16;;;;;;;8.30;5.35;;;;;;;17.18;69.71;100350.03;4935743;29;20032;-91
2021/08/02 01:19:41;;;;;;;9.32;6.00;;;;;;;17.19;69.34;100358.81;4935511;29;20055;-91
2021/08/02 01:22:16;;;;;;;7.82;6.80;;;;;;;17.33;69.83;100358.31;4935576;29;20028;-91
2021/08/02 01:24:43;;;;;;;11.25;7.32;;;;;;;17.24;70.08;100361.88;4935466;29;20023;-91
2021/08/02 01:27:09;;;;;;;8.13;6.47;;;;;;;17.17;70.11;100361.63;4935534;29;20027;-92
2021/08/02 01:30:11;;;;;;;8.25;6.65;;;;;;;17.53;69.37;100360.84;4935584;29;20050;-91
2021/08/02 01:32:37;;;;;;;8.00;6.25;;;;;;;17.27;69.74;100360.75;4935401;29;20038;-91
2021/08/02 01:35:03;;;;;;;9.15;6.40;;;;;;;17.20;70.25;100369.28;4935518;29;20023;-92
2021/08/02 01:37:29;;;;;;;8.30;6.75;;;;;;;17.23;70.49;100365.50;4934993;29;20398;-92
2021/08/02 01:39:55;;;;;;;8.10;7.28;;;;;;;17.27;70.61;100361.56;4933864;29;20035;-91
2021/08/02 01:42:21;;;;;;;9.82;6.88;;;;;;;17.28;70.28;100362.38;4935245;29;20036;-92
2021/08/02 01:44:47;;;;;;;10.77;7.20;;;;;;;17.35;70.08;100359.00;4935097;29;20093;-91
2021/08/02 01:47:22;;;;;;;13.73;7.82;;;;;;;17.48;69.48;100349.84;4935188;29;20032;-92
2021/08/02 01:49:58;;;;;;;11.20;8.52;;;;;;;17.33;70.07;100344.22;4935084;29;20053;-92
2021/08/02 01:52:37;;;;;;;9.88;8.13;;;;;;;17.54;69.90;100343.94;4933191;29;20038;-91
2021/08/02 01:55:08;;;;;;;12.38;7.63;;;;;;;17.48;69.87;100358.66;4934989;29;20051;-91
2021/08/02 01:57:44;;;;;;;8.65;6.80;;;;;;;17.49;69.72;100352.34;4934894;29;20110;-91
2021/08/02 02:00:12;;;;;;;8.02;7.00;;;;;;;17.37;70.23;100351.72;4935128;29;20118;-91
2021/08/02 02:02:39;;;;;;;9.38;7.53;;;;;;;17.35;70.11;100363.47;4935216;29;20039;-91
2021/08/02 02:05:10;;;;;;;11.93;9.70;;;;;;;17.37;70.28;100357.03;4933671;29;20470;-92
2021/08/02 02:07:41;;;;;;;13.57;8.63;;;;;;;17.29;70.78;100359.59;4934875;29;20031;-91
2021/08/02 02:10:07;;;;;;;;;;;;;;;17.61;69.51;100364.44;4935425;29;20061;-91
2021/08/02 02:12:33;;;;;;;14.90;11.05;;;;;;;17.17;70.84;100369.56;4934914;29;19942;-91
2021/08/02 02:15:00;;;;;;;17.88;12.15;;;;;;;17.27;70.94;100360.75;4934815;29;20032;-92
2021/08/02 02:17:26;;;;;;;13.15;9.40;;;;;;;17.30;70.74;100353.31;4934658;29;20092;-91
2021/08/02 02:19:55;;;;;;;14.80;10.35;;;;;;;17.40;70.74;100351.44;4934849;29;20028;-92
2021/08/02 02:22:23;;;;;;;12.65;9.45;;;;;;;17.38;70.90;100353.41;4934691;29;20022;-91
2021/08/02 02:24:50;;;;;;;10.88;9.75;;;;;;;17.40;70.40;100353.25;4934548;29;20023;-91
2021/08/02 02:27:17;;;;;;;12.88;9.55;;;;;;;17.42;70.43;100359.25;4934768;29;20078;-92
2021/08/02 02:29:44;;;;;;;12.10;8.98;;;;;;;17.47;70.34;100361.44;4934723;29;20221;-93
2021/08/02 02:32:10;;;;;;;11.48;10.10;;;;;;;17.43;70.71;100358.25;4934692;29;20032;-92
2021/08/02 02:34:38;;;;;;;14.50;9.90;;;;;;;17.44;70.59;100363.41;4934328;29;20463;-90
2021/08/02 02:37:04;;;;;;;11.48;10.00;;;;;;;17.45;70.92;100369.56;4933286;29;20046;-92
2021/08/02 02:39:31;;;;;;;12.52;10.10;;;;;;;17.40;71.08;100377.97;4934385;29;20505;-93
2021/08/02 02:41:58;;;;;;;10.85;9.32;;;;;;;17.44;70.96;100381.16;4934576;29;20115;-92
2021/08/02 02:44:24;;;;;;;10.43;8.82;;;;;;;17.47;70.94;100374.72;4934432;29;20039;-91
2021/08/02 02:46:50;;;;;;;12.13;9.25;;;;;;;17.43;71.08;100380.31;4934644;29;20036;-92
2021/08/02 02:49:18;;;;;;;10.63;9.52;;;;;;;17.50;70.87;100367.28;4933215;29;20032;-92
2021/08/02 02:51:45;;;;;;;12.23;10.45;;;;;;;17.52;71.01;100369.81;4934563;29;20290;-91
2021/08/02 02:54:11;;;;;;;11.15;9.30;;;;;;;17.57;70.47;100364.88;4934335;29;20099;-92
2021/08/02 02:56:37;;;;;;;11.48;8.30;;;;;;;17.60;70.56;100362.75;4934413;29;20627;-91
2021/08/02 02:59:03;;;;;;;8.70;7.78;;;;;;;17.60;70.26;100367.22;4934490;29;20024;-91
2021/08/02 03:01:38;;;;;;;14.27;9.50;;;;;;;17.74;69.94;100369.34;4934419;29;20406;-92
2021/08/02 03:04:06;;;;;;;14.43;10.07;;;;;;;17.61;70.15;100358.25;4937643;29;20123;-92
2021/08/02 03:06:32;;;;;;;12.05;9.32;;;;;;;17.54;70.43;100367.84;4938129;29;20028;-91
2021/08/02 03:08:58;;;;;;;11.70;9.27;;;;;;;17.51;70.75;100374.25;4937992;29;20035;-91
2021/08/02 03:11:24;;;;;;;10.55;8.88;;;;;;;17.55;70.70;100369.50;4938024;29;20524;-91
2021/08/02 03:13:50;;;;;;;8.75;7.75;;;;;;;17.54;70.45;100367.84;4938040;29;20035;-92
2021/08/02 03:16:20;;;;;;;12.02;9.25;;;;;;;17.63;70.86;100361.59;4937837;29;20350;-91
2021/08/02 03:18:47;;;;;;;13.05;10.45;;;;;;;17.56;70.56;100374.66;4937935;29;20497;-92
2021/08/02 03:21:14;;;;;;;11.60;9.25;;;;;;;17.65;70.69;100372.91;4937882;29;20019;-93
2021/08/02 03:23:53;;;;;;;11.68;9.80;;;;;;;17.62;70.40;100371.41;4937720;29;20023;-92
2021/08/02 03:26:27;;;;;;;11.07;8.82;;;;;;;17.76;70.35;100375.34;4937630;29;20031;-91
2021/08/02 03:28:58;;;;;;;10.43;8.63;;;;;;;17.64;70.54;100379.22;4937497;29;20060;-92
2021/08/02 03:31:31;;;;;;;11.07;9.63;;;;;;;17.80;70.81;100375.88;4937593;29;20051;-91
2021/08/02 03:33:59;;;;;;;10.98;8.98;;;;;;;17.68;70.74;100375.28;4937473;29;20733;-92
2021/08/02 03:36:26;;;;;;;10.40;8.45;;;;;;;17.61;70.98;100375.06;4936283;29;20071;-92
2021/08/02 03:38:53;;;;;;;10.70;9.02;;;;;;;17.67;70.91;100378.06;4937574;29;20035;-94
2021/08/02 03:41:21;;;;;;;11.77;9.13;;;;;;;17.71;70.96;100374.94;4937370;29;20028;-91
2021/08/02 03:43:47;;;;;;;9.70;8.13;;;;;;;17.70;70.96;100378.59;4937545;29;20027;-91
2021/08/02 03:46:14;;;;;;;11.35;8.85;;;;;;;17.73;70.86;100383.63;4937395;29;20034;-92
2021/08/02 03:48:39;;;;;;;13.10;11.02;;;;;;;17.71;70.64;100384.75;4937413;29;20032;-91
2021/08/02 03:51:05;;;;;;;10.68;8.73;;;;;;;17.72;70.58;100387.25;4937410;29;20538;-91
2021/08/02 03:53:45;;;;;;;10.15;8.27;;;;;;;17.93;70.30;100389.66;4937136;29;20028;-92
2021/08/02 03:56:14;;;;;;;16.50;10.05;;;;;;;17.60;70.77;100383.16;4937103;29;20047;-92
2021/08/02 03:58:39;;;;;;;13.07;9.07;;;;;;;17.66;70.96;100387.88;4937133;29;20036;-91
2021/08/02 04:01:05;;;;;;;12.07;8.65;;;;;;;17.69;71.04;100395.50;4937058;29;20163;-91
2021/08/02 04:03:30;;;;;;;11.60;9.02;;;;;;;17.70;70.81;100389.22;4937117;29;20039;-92
2021/08/02 04:05:58;;;;;;;11.63;9.27;;;;;;;17.76;70.93;100401.91;4937016;29;20035;-93
2021/08/02 04:08:24;;;;;;;10.68;7.97;;;;;;;17.82;70.62;100387.19;4937064;29;20604;-93
2021/08/02 04:10:50;;;;;;;11.73;8.98;;;;;;;17.72;70.67;100397.88;4936932;29;20172;-93
2021/08/02 04:13:17;;;;;;;12.05;10.20;;;;;;;17.62;70.89;100389.97;4936733;29;20230;-92
2021/08/02 04:15:43;;;;;;;9.15;8.18;;;;;;;17.68;70.82;100395.69;4936155;29;20478;-93
2021/08/02 04:18:08;;;;;;;9.38;7.97;;;;;;;17.69;70.64;100398.16;4936809;29;20027;-92
2021/08/02 04:20:34;;;;;;;11.00;8.98;;;;;;;17.67;70.37;100392.16;4936797;29;20463;-92
2021/08/02 04:22:59;;;;;;;14.38;8.60;;;;;;;17.67;70.40;100394.81;4936892;29;20139;-94
2021/08/02 04:25:24;;;;;;;9.68;7.97;;;;;;;17.65;70.24;100391.50;4936728;29;20020;-93
2021/08/02 04:27:51;;;;;;;13.55;9.00;;;;;;;17.55;70.28;100396.88;4936851;29;20036;-92
2021/08/02 04:30:16;;;;;;;13.00;10.68;;;;;;;17.47;70.80;100398.59;4936690;29;20079;-92
2021/08/02 04:32:43;;;;;;;16.15;9.15;;;;;;;17.49;70.89;100394.81;4936924;29;20423;-92
2021/08/02 04:35:09;;;;;;;12.25;8.88;;;;;;;17.53;70.90;100398.00;4936467;29;20079;-92
2021/08/02 04:37:34;;;;;;;14.43;10.85;;;;;;;17.51;70.90;100400.81;4936432;29;20039;-92
2021/08/02 04:40:00;;;;;;;12.50;9.52;;;;;;;17.49;70.79;100394.81;4936270;29;20036;-92
2021/08/02 04:42:25;;;;;;;11.70;9.57;;;;;;;17.59;71.05;100389.44;4936519;29;20058;-93
2021/08/02 04:44:51;;;;;;;12.00;8.38;;;;;;;17.43;71.88;100398.06;4936587;29;20494;-93
2021/08/02 04:47:16;;;;;;;14.57;8.10;;;;;;;17.39;71.86;100394.88;4936511;29;20099;-92
2021/08/02 04:49:41;;;;;;;16.45;10.63;;;;;;;17.41;72.12;100398.22;4936348;29;20587;-93
2021/08/02 04:52:07;;;;;;;20.55;9.50;;;;;;;17.45;71.79;100396.91;4936326;29;20035;-92
2021/08/02 04:54:32;;;;;;;11.63;8.90;;;;;;;17.45;72.24;100396.09;4936057;29;20032;-93
2021/08/02 04:56:57;;;;;;;11.77;8.73;;;;;;;17.51;72.27;100400.81;4936070;29;20474;-90
2021/08/02 04:59:22;;;;;;;11.40;8.45;;;;;;;17.57;72.14;100404.69;4934833;29;20028;-92
2021/08/02 05:01:48;;;;;;;11.38;8.18;;;;;;;17.66;72.48;100414.41;4935477;29;20028;-92
2021/08/02 05:04:13;;;;;;;12.85;9.27;;;;;;;17.71;72.42;100400.69;4934767;29;20028;-92
2021/08/02 05:06:38;;;;;;;11.77;9.23;;;;;;;17.86;71.76;100409.00;4933943;29;20066;-92
2021/08/02 05:09:04;;;;;;;17.25;11.75;;;;;;;17.86;71.89;100404.50;4935517;29;20374;-91
2021/08/02 05:11:29;;;;;;;16.75;11.18;;;;;;;17.90;71.82;100410.38;4935935;29;20040;-92
2021/08/02 05:13:54;;;;;;;16.95;11.15;;;;;;;17.97;72.38;100406.09;4938857;29;20131;-93
2021/08/02 05:16:20;;;;;;;21.05;13.25;;;;;;;18.09;71.28;100409.34;4937607;29;20043;-91
2021/08/02 05:18:45;;;;;;;19.25;11.25;;;;;;;18.07;71.85;100411.34;4937495;29;20040;-91
2021/08/02 05:21:11;;;;;;;20.73;13.50;;;;;;;17.96;72.39;100415.06;4938789;29;20114;-95
2021/08/02 05:23:36;;;;;;;25.58;13.18;;;;;;;18.15;71.47;100419.41;4937979;29;20078;-95
2021/08/02 05:26:02;;;;;;;22.58;13.68;;;;;;;18.20;70.94;100423.25;4935752;29;20035;-93
2021/08/02 05:28:27;;;;;;;22.98;13.10;;;;;;;18.23;70.90;100425.59;5065469;23;20049;-93
2021/08/02 05:30:52;;;;;;;25.30;14.57;;;;;;;18.38;70.45;100419.72;4956965;28;20064;-93
2021/08/02 05:33:18;;;;;;;24.58;11.88;;;;;;;18.43;70.63;100417.44;4953568;28;20035;-94
2021/08/02 05:35:43;;;;;;;19.58;11.70;;;;;;;18.42;70.91;100415.78;4951567;29;20139;-92
2021/08/02 05:38:08;;;;;;;20.23;12.13;;;;;;;18.46;71.36;100419.78;4954876;28;20027;-94
2021/08/02 05:40:34;;;;;;;19.73;11.65;;;;;;;18.46;71.24;100422.44;4954058;28;20035;-91
2021/08/02 05:42:59;;;;;;;22.02;12.52;;;;;;;18.56;70.68;100412.56;4945146;28;20028;-93
2021/08/02 05:45:25;;;;;;;25.88;13.55;;;;;;;18.52;70.43;100426.31;4935341;29;20024;-91
2021/08/02 05:47:52;;;;;;;24.00;13.35;;;;;;;18.50;70.88;100430.94;4950128;29;20482;-94
2021/08/02 05:50:18;;;;;;;28.13;15.07;;;;;;;18.49;71.04;100426.63;4945233;29;20508;-92
2021/08/02 05:52:43;;;;;;;26.73;14.65;;;;;;;18.52;71.00;100427.16;4953690;28;20035;-94
2021/08/02 05:55:10;;;;;;;30.83;16.48;;;;;;;18.54;71.18;100413.69;4955188;28;20058;-93
2021/08/02 05:57:35;;;;;;;28.42;16.05;;;;;;;18.65;70.80;100420.59;4954425;28;20023;-93
2021/08/02 06:00:01;;;;;;;26.83;15.38;;;;;;;18.56;71.22;100419.69;4954632;28;20363;-93
2021/08/02 06:02:26;;;;;;;34.55;15.10;;;;;;;18.42;72.15;100421.09;4954395;28;20027;-94
2021/08/02 06:04:52;;;;;;;23.45;13.82;;;;;;;18.53;72.11;100422.69;4953239;29;20098;-93
2021/08/02 06:07:17;;;;;;;19.20;12.25;;;;;;;18.53;72.00;100422.69;4954149;28;20031;-94
2021/08/02 06:09:43;;;;;;;18.17;10.80;;;;;;;18.58;71.78;100423.03;4954384;28;20031;-94
2021/08/02 06:12:09;;;;;;;15.50;10.45;;;;;;;18.55;72.57;100426.84;4954363;28;20034;-94
2021/08/02 06:14:35;;;;;;;16.40;9.35;;;;;;;18.52;72.61;100429.81;4954364;28;20478;-95
2021/08/02 06:17:00;;;;;;;14.18;9.80;;;;;;;18.45;73.07;100419.97;4954320;28;20127;-94
2021/08/02 06:19:25;;;;;;;14.65;10.00;;;;;;;18.41;73.33;100430.91;4954448;28;20105;-94
2021/08/02 06:21:51;;;;;;;15.30;10.35;;;;;;;18.52;72.22;100432.50;4954257;28;20015;-94
2021/08/02 06:24:16;;;;;;;14.95;10.45;;;;;;;18.60;72.39;100429.88;4953153;29;20474;-94
2021/08/02 06:26:41;;;;;;;19.83;10.45;;;;;;;18.61;72.28;100431.53;4954513;28;20136;-93
2021/08/02 06:29:07;;;;;;;18.42;12.30;;;;;;;18.63;72.18;100424.22;4954288;28;20031;-95
2021/08/02 06:31:32;;;;;;;21.08;12.13;;;;;;;18.60;72.45;100434.34;4954373;28;20493;-93
2021/08/02 06:33:57;;;;;;;21.58;12.43;;;;;;;18.70;72.16;100434.25;4954379;28;20031;-94
2021/08/02 06:36:23;;;;;;;22.70;12.02;;;;;;;18.54;72.88;100429.66;4954283;28;20031;-95
2021/08/02 06:38:48;;;;;;;20.73;12.70;;;;;;;18.54;73.05;100434.97;4957647;28;20035;-93
2021/08/02 06:41:14;;;;;;;20.98;12.32;;;;;;;18.56;73.10;100423.22;4958436;28;20023;-93
2021/08/02 06:43:40;;;;;;;19.08;11.50;;;;;;;18.88;71.86;100429.75;4958241;28;20139;-93
2021/08/02 06:46:07;;;;;;;23.08;13.02;;;;;;;18.94;71.29;100429.13;4957104;29;20066;-95
2021/08/02 06:48:33;;;;;;;20.85;12.68;;;;;;;18.74;72.19;100428.47;4958175;28;20516;-93
2021/08/02 06:50:58;;;;;;;22.83;13.48;;;;;;;18.96;71.44;100434.28;4958839;28;20031;-94
2021/08/02 06:53:24;;;;;;;21.85;13.88;;;;;;;19.03;70.98;100425.47;4958134;28;20453;-93
2021/08/02 06:55:49;;;;;;;22.67;13.32;;;;;;;18.93;71.45;100422.09;4957616;28;20055;-93
2021/08/02 06:58:17;;;;;;;19.65;12.70;;;;;;;19.29;70.64;100424.59;4957542;28;20031;-92
2021/08/02 07:00:43;;;;;;;21.92;12.40;;;;;;;19.22;69.74;100427.06;4957516;28;20027;-92
2021/08/02 07:03:09;;;;;;;22.63;13.00;;;;;;;19.19;70.09;100431.88;4957317;28;20434;-92
2021/08/02 07:05:35;;;;;;;24.33;12.02;;;;;;;19.21;69.56;100436.06;4957409;28;20528;-92
2021/08/02 07:08:00;;;;;;;19.05;12.40;;;;;;;19.14;70.20;100442.19;4957298;28;20035;-93
2021/08/02 07:10:25;;;;;;;20.00;11.52;;;;;;;19.25;70.27;100433.06;4953564;28;20028;-92
2021/08/02 07:12:51;;;;;;;22.73;11.68;;;;;;;19.39;69.81;100430.66;4945045;28;20031;-91
2021/08/02 07:15:16;;;;;;;27.35;13.10;;;;;;;19.39;69.60;100435.97;4945513;28;20027;-91
2021/08/02 07:17:42;;;;;;;17.27;10.90;;;;;;;19.58;68.61;100432.19;4943558;28;20090;-91
2021/08/02 07:20:08;;;;;;;17.42;10.60;;;;;;;19.49;68.75;100435.00;4941626;28;20603;-91
2021/08/02 07:22:34;;;;;;;19.45;11.52;;;;;;;19.43;68.88;100433.78;4952502;29;20058;-92
2021/08/02 07:24:59;;;;;;;19.83;10.43;;;;;;;19.50;68.89;100436.66;4955421;28;20055;-91
2021/08/02 07:27:24;;;;;;;23.55;12.20;;;;;;;19.41;68.41;100441.97;4961505;28;20393;-91
2021/08/02 07:29:50;;;;;;;18.02;10.25;;;;;;;19.49;68.74;100442.97;4957937;28;20039;-92
2021/08/02 07:32:15;;;;;;;13.45;9.02;;;;;;;19.70;68.56;100450.53;4955448;28;20035;-91
2021/08/02 07:34:41;;;;;;;18.13;10.20;;;;;;;19.67;68.42;100441.06;4956599;28;20087;-91
2021/08/02 07:37:06;;;;;;;15.70;10.05;;;;;;;19.79;68.05;100445.09;4951728;28;20063;-91
2021/08/02 07:39:32;;;;;;;16.40;10.13;;;;;;;19.96;67.73;100442.47;4942893;28;20035;-91
2021/08/02 07:41:57;;;;;;;18.05;10.32;;;;;;;20.02;67.44;100441.78;4944822;29;20035;-90
2021/08/02 07:44:23;;;;;;;17.45;11.02;;;;;;;20.16;66.74;100435.84;4950370;29;20035;-92
2021/08/02 07:46:49;;;;;;;22.48;9.88;;;;;;;20.32;66.08;100442.13;4941769;28;20474;-92
2021/08/02 07:49:14;;;;;;;14.60;10.23;;;;;;;20.07;66.53;100441.31;4951713;28;20469;-91
2021/08/02 07:51:39;;;;;;;12.98;9.68;;;;;;;20.36;65.56;100444.31;4949930;28;20058;-90
2021/08/02 07:54:05;;;;;;;13.32;9.40;;;;;;;20.43;65.28;100444.47;4943536;28;20113;-91
2021/08/02 07:56:32;;;;;;;15.13;9.38;;;;;;;20.43;65.10;100446.31;4954323;28;20074;-92
2021/08/02 07:58:58;;;;;;;15.43;9.63;;;;;;;20.17;65.78;100447.31;4950028;28;20078;-92
2021/08/02 08:01:23;;;;;;;18.77;9.63;;;;;;;20.11;65.28;100448.81;4951556;28;20031;-92
2021/08/02 08:03:49;;;;;;;13.38;8.88;;;;;;;20.45;65.28;100439.81;4951600;28;20031;-90
2021/08/02 08:06:14;;;;;;;14.70;10.18;;;;;;;20.46;64.60;100443.31;4955464;28;20430;-91
2021/08/02 08:08:39;;;;;;;13.20;8.93;;;;;;;20.47;65.40;100447.66;4949274;28;20029;-90
2021/08/02 08:11:06;;;;;;;13.20;9.40;;;;;;;20.32;65.46;100448.34;4944396;28;20035;-90
2021/08/02 08:13:32;;;;;;;13.40;8.35;;;;;;;20.45;65.21;100444.31;4946803;28;20023;-91
2021/08/02 08:15:57;;;;;;;15.68;10.00;;;;;;;20.30;66.22;100446.81;4948879;29;20027;-91
2021/08/02 08:18:22;;;;;;;12.80;8.95;;;;;;;20.37;64.89;100450.47;4939479;29;20543;-90
2021/08/02 08:20:48;;;;;;;11.95;8.98;;;;;;;20.31;65.60;100441.31;4942105;29;20024;-91
2021/08/02 08:23:13;;;;;;;14.30;9.23;;;;;;;20.28;65.57;100438.16;4936799;29;20035;-93
2021/08/02 08:25:39;;;;;;;14.38;8.88;;;;;;;20.15;66.02;100433.31;4936663;29;20028;-91
2021/08/02 08:28:05;;;;;;;11.52;8.25;;;;;;;20.45;65.28;100433.66;4936557;29;20035;-92
2021/08/02 08:30:30;;;;;;;15.82;8.18;;;;;;;20.45;65.30;100434.47;4936545;29;20062;-91
2021/08/02 08:32:56;;;;;;;13.43;8.02;;;;;;;20.40;65.99;100428.84;4938065;29;20027;-92
2021/08/02 08:35:22;;;;;;;13.70;8.45;;;;;;;20.47;65.66;100428.97;4955324;28;20034;-93
2021/08/02 08:37:48;;;;;;;11.55;7.55;;;;;;;20.44;65.37;100432.81;4954314;28;20027;-92
2021/08/02 08:40:14;;;;;;;11.00;7.65;;;;;;;20.19;66.59;100440.81;4955632;28;20031;-91
2021/08/02 08:42:41;;;;;;;10.40;7.35;;;;;;;20.33;66.14;100435.81;4953637;28;20037;-92
2021/08/02 08:45:08;;;;;;;10.55;6.75;;;;;;;20.38;66.00;100436.16;4947161;28;20366;-92
2021/08/02 08:47:35;;;;;;;10.68;6.82;;;;;;;20.29;64.76;100442.50;4955289;28;20448;-92
2021/08/02 08:50:05;;;;;;;10.93;6.45;;;;;;;20.35;65.71;100444.50;4950611;28;20051;-92
2021/08/02 08:52:34;;;;;;;10.40;6.53;;;;;;;20.31;65.65;100446.66;4950829;29;20398;-92
2021/08/02 08:54:59;;;;;;;12.38;7.25;;;;;;;20.23;66.00;100445.81;4935977;29;20031;-92
2021/08/02 08:57:24;;;;;;;10.77;7.32;;;;;;;20.08;66.72;100454.47;4934583;29;20389;-92
2021/08/02 08:59:52;;;;;;;13.10;7.28;;;;;;;20.30;65.77;100454.81;4935385;29;20078;-92
2021/08/02 09:02:25;;;;;;;15.30;7.60;;;;;;;20.37;65.68;100458.50;4935636;29;20028;-92
2021/08/02 09:04:56;;;;;;;11.15;6.80;;;;;;;20.35;65.37;100449.81;4934647;29;20032;-92
2021/08/02 09:07:33;;;;;;;11.05;6.32;;;;;;;20.43;65.85;100449.81;4952292;29;20408;-92
2021/08/02 09:09:59;;;;;;;15.43;7.90;;;;;;;20.19;66.56;100451.47;4953529;28;20494;-92
2021/08/02 09:12:25;;;;;;;13.73;7.55;;;;;;;20.31;66.39;100451.16;4954986;28;20034;-91
2021/08/02 09:14:57;;;;;;;13.73;8.07;;;;;;;20.45;65.56;100445.16;4939990;28;20038;-92
2021/08/02 09:17:29;;;;;;;;;;;;;;;20.84;65.01;100441.78;4944989;29;20044;-92
2021/08/02 09:19:55;;;;;;;13.65;6.40;;;;;;;20.75;65.06;100453.47;4934983;29;19977;-92
2021/08/02 09:22:35;;;;;;;14.80;7.03;;;;;;;21.05;64.68;100451.06;4935124;29;20434;-92
2021/08/02 09:25:26;;;;;;;13.45;6.78;;;;;;;21.34;62.47;100453.97;4949393;29;20510;-92
2021/08/02 09:27:52;;;;;;;10.95;6.43;;;;;;;21.23;63.21;100451.69;4945743;29;20107;-92
2021/08/02 09:30:25;;;;;;;14.05;6.65;;;;;;;21.53;62.69;100457.28;4936085;29;20044;-91
2021/08/02 09:33:05;;;;;;;11.20;6.28;;;;;;;21.97;61.97;100448.66;4951312;28;20049;-92
2021/08/02 09:35:42;;;;;;;10.88;6.40;;;;;;;22.31;60.42;100450.09;4951016;29;20146;-91
2021/08/02 09:38:12;;;;;;;11.38;6.32;;;;;;;22.52;60.39;100454.78;4947610;28;20097;-91
2021/08/02 09:40:42;;;;;;;9.10;5.40;;;;;;;22.52;60.14;100452.91;4954207;28;20074;-91
2021/08/02 09:43:13;;;;;;;9.65;5.60;;;;;;;22.55;58.77;100446.38;4952416;28;20027;-90
2021/08/02 09:45:49;;;;;;;9.32;5.93;;;;;;;22.63;58.78;100446.31;4953713;28;20082;-92
2021/08/02 09:48:15;;;;;;;8.18;5.32;;;;;;;22.61;58.73;100443.00;4948093;29;20027;-90
2021/08/02 09:50:43;;;;;;;8.35;5.35;;;;;;;22.95;57.81;100445.13;4936415;28;20035;-89
2021/08/02 09:53:18;;;;;;;7.32;4.90;;;;;;;23.59;57.51;100445.56;4952071;28;20035;-87
2021/08/02 09:55:45;;;;;;;6.80;4.85;;;;;;;24.01;56.90;100441.28;4949896;29;20485;-95
2021/08/02 09:58:14;;;;;;;6.95;4.20;;;;;;;24.32;55.77;100436.41;4945743;29;20035;-94
2021/08/02 10:00:40;;;;;;;9.90;5.15;;;;;;;24.17;55.26;100437.50;4949076;29;20078;-92
2021/08/02 10:03:05;;;;;;;12.13;4.88;;;;;;;24.50;51.74;100435.97;4934364;29;20032;-94
2021/08/02 10:05:31;;;;;;;7.22;4.05;;;;;;;24.38;52.99;100434.81;4934680;29;20027;-93
2021/08/02 10:07:57;;;;;;;14.35;4.93;;;;;;;25.29;52.31;100426.75;4953433;29;20031;-94
2021/08/02 10:10:22;;;;;;;6.47;4.05;;;;;;;25.16;52.80;100433.88;4944919;28;20045;-96
2021/08/02 10:12:49;;;;;;;5.95;3.83;;;;;;;25.29;51.43;100432.13;4956165;29;20035;-94
2021/08/02 10:15:21;;;;;;;6.85;3.83;;;;;;;25.78;50.25;100430.22;4962804;28;20059;-94
2021/08/02 10:17:53;;;;;;;8.75;3.50;;;;;;;27.22;49.20;100430.59;4965893;28;20031;-96
2021/08/02 10:20:29;;;;;;;5.93;3.65;;;;;;;27.59;45.91;100410.13;5164045;23;21861;-96
2021/08/02 10:22:55;;;;;;;6.88;3.42;;;;;;;27.34;45.00;100415.41;4930381;29;20036;-95
2021/08/02 10:25:36;;;;;;;5.85;3.38;;;;;;;27.22;45.68;100417.94;4913664;29;20502;-96
2021/08/02 10:43:37;;;;;;;8.18;3.92;;;;;;;27.03;45.87;100411.56;972053;23;20321;-96
2021/08/02 10:49:11;;;;;;;6.07;3.83;;;;;;;26.88;45.61;100411.81;5015357;23;20044;-96
2021/08/02 10:51:51;;;;;;;9.48;3.10;;;;;;;27.40;44.67;100419.94;4930451;23;20181;-95
2021/08/02 10:54:18;;;;;;;6.97;3.75;;;;;;;27.95;42.75;100419.47;4902199;29;20032;-93
2021/08/02 10:56:49;;;;;;;6.63;3.13;;;;;;;28.20;42.96;100424.88;4891987;29;20092;-93
2021/08/02 10:59:20;;;;;;;4.93;3.20;;;;;;;27.96;42.57;100418.41;4881141;29;20540;-95
2021/08/02 11:01:50;;;;;;;4.20;2.97;;;;;;;28.03;41.71;100413.78;4879883;29;20033;-96
2021/08/02 11:04:17;;;;;;;3.40;2.75;;;;;;;28.29;39.99;100414.63;4883321;29;20029;-94
2021/08/02 11:06:47;;;;;;;2.55;1.63;;;;;;;28.66;40.56;100412.03;5315244;23;20063;-95
2021/08/02 11:09:13;;;;;;;3.45;1.95;;;;;;;28.68;40.69;100423.44;4914069;29;20043;-96
2021/08/02 11:11:39;;;;;;;6.47;2.67;;;;;;;27.96;41.75;100412.19;4998512;23;20069;-96
2021/08/02 11:14:09;;;;;;;2.88;2.33;;;;;;;27.92;41.01;100408.28;4952149;29;20152;-96
2021/08/02 11:24:38;;;;;;;5.60;2.55;;;;;;;27.77;42.00;100413.97;5252118;23;20059;-96
2021/08/02 11:27:08;;;;;;;2.65;2.35;;;;;;;27.75;42.48;100414.16;4948606;28;20039;-96
2021/08/02 11:29:36;;;;;;;7.10;2.50;;;;;;;27.91;43.20;100410.16;5338292;23;20487;-96
2021/08/02 11:34:42;;;;;;;3.80;2.47;;;;;;;27.91;42.37;100393.97;5529227;23;20063;-96
2021/08/02 11:37:09;;;;;;;;;;;;;;;28.31;42.78;100404.44;4962344;29;20035;-96
2021/08/02 11:39:37;;;;;;;2.28;1.75;;;;;;;28.92;40.85;100402.00;4962000;29;19911;-96
2021/08/02 11:42:10;;;;;;;2.58;1.70;;;;;;;29.84;38.90;100404.56;4955600;29;20030;-96
2021/08/02 11:44:38;;;;;;;1.95;1.50;;;;;;;31.15;38.94;100401.63;4940201;29;20105;-96
2021/08/02 11:47:07;;;;;;;1.85;1.25;;;;;;;31.92;37.15;100397.63;4928325;29;20061;-96
2021/08/02 11:49:34;;;;;;;2.03;1.40;;;;;;;32.39;35.25;100402.75;4912988;29;20029;-96
2021/08/02 11:52:00;;;;;;;7.43;2.83;;;;;;;32.34;33.59;100402.66;4915155;29;20036;-95